Time;durP1;ratioP1;P1;durP2;ratioP2;P2;SDS_P1;SDS_P2;PMS_P1;PMS_P2;Temp;Humidity;BMP_temperature;BMP_pressure;BME280_temperature;BME280_humidity;BME280_pressure;Samples;Min_cycle;Max_cycle;Signal;HPM_P1;HPM_P2
2023/02/06 00:00:44;;;;;;;3.10;1.30;;;6.10;99.90;;;;;;5039201;28;20221;-89
2023/02/06 00:03:10;;;;;;;0.97;0.97;;;6.10;99.90;;;;;;5056641;28;20178;-86
2023/02/06 00:05:36;;;;;;;1.03;0.93;;;6.10;99.90;;;;;;5073474;28;20236;-87
2023/02/06 00:08:02;;;;;;;1.10;1.10;;;6.10;99.90;;;;;;5055248;28;20213;-87
2023/02/06 00:10:28;;;;;;;0.30;0.30;;;6.10;99.90;;;;;;5073795;28;20220;-87
2023/02/06 00:12:54;;;;;;;0.30;0.30;;;6.10;99.90;;;;;;5055575;28;20225;-86
2023/02/06 00:15:20;;;;;;;6.40;1.43;;;6.10;99.90;;;;;;5073761;28;20672;-89
2023/02/06 00:17:45;;;;;;;1.23;0.40;;;6.10;99.90;;;;;;5056310;28;20265;-86
2023/02/06 00:20:12;;;;;;;4.70;1.17;;;6.10;99.90;;;;;;5073206;28;20276;-86
2023/02/06 00:22:38;;;;;;;0.90;0.90;;;6.20;99.90;;;;;;5055732;28;20286;-86
2023/02/06 00:25:05;;;;;;;7.23;1.37;;;6.20;99.90;;;;;;5055331;28;20224;-86
2023/02/06 00:27:31;;;;;;;1.40;1.17;;;6.20;99.90;;;;;;5055283;28;20178;-87
2023/02/06 00:29:56;;;;;;;0.70;0.70;;;6.20;99.90;;;;;;5023170;28;20273;-87
2023/02/06 00:32:22;;;;;;;1.03;0.93;;;6.20;99.90;;;;;;5072681;28;20228;-88
2023/02/06 00:34:48;;;;;;;0.40;0.40;;;6.20;99.90;;;;;;5038890;28;20234;-87
2023/02/06 00:37:13;;;;;;;1.03;0.73;;;6.20;99.90;;;;;;5055397;28;20217;-86
2023/02/06 00:39:39;;;;;;;0.80;0.53;;;6.20;99.90;;;;;;5055181;28;20585;-89
2023/02/06 00:42:05;;;;;;;4.60;0.83;;;6.20;99.90;;;;;;5056034;28;20570;-86
2023/02/06 00:44:31;;;;;;;2.60;0.43;;;6.20;99.90;;;;;;5055079;28;20229;-89
2023/02/06 00:46:57;;;;;;;0.17;0.17;;;6.30;99.90;;;;;;5055284;28;20217;-87
2023/02/06 00:49:23;;;;;;;0.63;0.63;;;6.30;99.90;;;;;;5054647;28;20761;-86
2023/02/06 00:51:49;;;;;;;2.67;0.53;;;6.30;99.90;;;;;;5037214;28;20233;-86
2023/02/06 00:54:15;;;;;;;0.50;0.50;;;6.30;99.90;;;;;;5071577;28;20200;-89
2023/02/06 00:56:41;;;;;;;1.70;1.33;;;6.20;99.90;;;;;;5054332;28;20176;-86
2023/02/06 00:59:07;;;;;;;0.23;0.23;;;6.20;99.90;;;;;;5071408;28;20224;-89
2023/02/06 01:01:33;;;;;;;6.03;1.00;;;6.20;99.90;;;;;;5037229;28;20228;-88
2023/02/06 01:03:59;;;;;;;9.97;0.60;;;6.20;99.90;;;;;;5053873;28;20370;-87
2023/02/06 01:06:25;;;;;;;0.40;0.40;;;6.30;99.90;;;;;;5037141;28;20213;-89
2023/02/06 01:08:51;;;;;;;0.60;0.60;;;6.30;99.90;;;;;;5071411;28;20257;-88
2023/02/06 01:11:21;;;;;;;3.43;0.60;;;6.30;99.90;;;;;;5054259;28;20730;-89
2023/02/06 01:13:46;;;;;;;0.50;0.50;;;6.30;99.90;;;;;;5054257;28;20209;-88
2023/02/06 01:16:15;;;;;;;7.63;1.80;;;6.30;99.90;;;;;;5037942;28;20237;-87
2023/02/06 01:18:42;;;;;;;3.40;0.63;;;6.20;99.90;;;;;;5072389;28;20296;-87
2023/02/06 01:21:10;;;;;;;0.63;0.60;;;6.20;99.90;;;;;;5038389;28;20205;-87
2023/02/06 01:23:38;;;;;;;3.20;0.50;;;6.20;99.90;;;;;;5054690;28;20217;-86
2023/02/06 01:26:06;;;;;;;0.47;0.47;;;6.20;99.90;;;;;;5036649;28;20320;-88
2023/02/06 01:28:39;;;;;;;0.97;0.87;;;6.10;99.90;;;;;;5070649;28;20232;-87
2023/02/06 01:31:12;;;;;;;1.03;1.03;;;6.10;99.90;;;;;;5069994;28;20671;-88
2023/02/06 01:33:39;;;;;;;0.67;0.67;;;6.10;99.90;;;;;;5052232;28;20296;-88
2023/02/06 01:36:05;;;;;;;3.27;1.20;;;6.10;99.90;;;;;;5070536;28;20268;-88
2023/02/06 01:38:30;;;;;;;0.30;0.30;;;6.10;99.90;;;;;;5069604;28;20221;-87
2023/02/06 01:40:57;;;;;;;1.60;0.73;;;6.10;99.90;;;;;;5052009;28;20573;-88
2023/02/06 01:43:24;;;;;;;5.00;2.30;;;6.10;99.90;;;;;;5052096;28;20240;-85
2023/02/06 01:45:51;;;;;;;6.50;0.90;;;6.00;99.90;;;;;;5069855;28;20674;-86
2023/02/06 01:48:24;;;;;;;6.23;1.10;;;6.00;99.90;;;;;;5069769;28;20734;-86
2023/02/06 01:50:54;;;;;;;2.93;1.90;;;6.00;99.90;;;;;;5052853;28;20588;-86
2023/02/06 01:53:20;;;;;;;0.67;0.67;;;6.00;99.90;;;;;;5070459;28;20774;-86
2023/02/06 01:55:48;;;;;;;13.07;2.10;;;6.00;99.90;;;;;;5052734;28;20248;-85
2023/02/06 01:58:19;;;;;;;5.90;1.40;;;6.00;99.90;;;;;;5052946;28;20213;-86
2023/02/06 02:00:46;;;;;;;0.70;0.70;;;6.00;99.90;;;;;;5069946;28;20221;-86
2023/02/06 02:03:12;;;;;;;0.30;0.30;;;6.00;99.90;;;;;;5051692;28;20178;-86
2023/02/06 02:05:40;;;;;;;0.20;0.20;;;6.00;99.90;;;;;;5051422;28;20295;-86
2023/02/06 02:08:24;;;;;;;0.60;0.60;;;6.00;99.90;;;;;;5069014;28;20224;-86
2023/02/06 02:10:50;;;;;;;0.40;0.40;;;6.00;99.90;;;;;;5069419;28;20237;-86
2023/02/06 02:13:16;;;;;;;1.10;1.00;;;6.10;99.90;;;;;;5035966;28;20252;-86
2023/02/06 02:16:13;;;;;;;1.87;1.70;;;6.10;99.90;;;;;;5035648;28;20213;-87
2023/02/06 02:18:55;;;;;;;1.00;0.77;;;6.10;99.90;;;;;;5051599;28;20213;-87
2023/02/06 02:21:42;;;;;;;1.20;0.77;;;6.10;99.90;;;;;;5051403;28;20209;-87
2023/02/06 02:24:15;;;;;;;2.00;0.77;;;6.00;99.90;;;;;;5052706;28;20176;-86
2023/02/06 02:27:23;;;;;;;2.40;0.83;;;6.00;99.90;;;;;;5052949;28;20208;-88
2023/02/06 02:30:32;;;;;;;2.10;2.00;;;5.90;99.90;;;;;;4990180;28;20650;-86
2023/02/06 02:33:07;;;;;;;2.57;1.50;;;6.00;99.90;;;;;;5052404;28;20721;-86
2023/02/06 02:35:59;;;;;;;1.80;1.03;;;6.00;99.90;;;;;;5069931;28;20216;-86
2023/02/06 02:38:33;;;;;;;2.13;0.50;;;5.90;99.90;;;;;;5051955;28;20770;-86
2023/02/06 02:41:22;;;;;;;1.33;1.23;;;5.90;99.90;;;;;;5069886;28;20369;-86
2023/02/06 02:44:00;;;;;;;1.50;0.83;;;5.90;99.90;;;;;;5051319;28;20316;-86
2023/02/06 02:46:31;;;;;;;0.50;0.50;;;5.90;99.90;;;;;;5069075;28;20243;-87
2023/02/06 02:49:11;;;;;;;2.57;2.43;;;6.00;99.90;;;;;;5051106;28;20205;-87
2023/02/06 02:51:39;;;;;;;0.97;0.97;;;6.00;99.90;;;;;;5051051;28;20577;-87
2023/02/06 02:54:05;;;;;;;1.63;1.53;;;6.00;99.90;;;;;;5052075;28;20692;-86
2023/02/06 02:56:34;;;;;;;9.40;1.93;;;6.00;99.90;;;;;;5051702;28;20305;-85
2023/02/06 02:59:04;;;;;;;7.20;1.93;;;6.00;99.90;;;;;;5035862;28;20795;-86
2023/02/06 03:01:45;;;;;;;1.37;1.27;;;6.10;99.90;;;;;;5051474;28;20308;-86
2023/02/06 03:04:44;;;;;;;1.67;1.00;;;6.10;99.90;;;;;;5051615;28;20684;-87
2023/02/06 03:07:29;;;;;;;0.70;0.70;;;6.10;99.90;;;;;;5050912;28;20217;-88
2023/02/06 03:10:04;;;;;;;5.37;1.00;;;6.20;99.90;;;;;;5069303;28;20713;-87
2023/02/06 03:12:41;;;;;;;0.60;0.60;;;6.10;99.90;;;;;;5051571;28;20169;-88
2023/02/06 03:15:28;;;;;;;8.47;1.77;;;6.10;99.90;;;;;;5052161;28;20185;-87
2023/02/06 03:18:08;;;;;;;0.47;0.47;;;6.00;99.90;;;;;;5051623;28;20227;-87
2023/02/06 03:20:37;;;;;;;0.80;0.80;;;6.00;99.90;;;;;;5050017;28;20301;-87
2023/02/06 03:23:05;;;;;;;0.50;0.50;;;6.00;99.90;;;;;;5050930;28;20237;-87
2023/02/06 03:25:35;;;;;;;4.73;1.53;;;6.00;99.90;;;;;;5050401;28;20216;-88
2023/02/06 03:28:03;;;;;;;2.13;1.13;;;5.90;99.90;;;;;;5069098;28;20412;-87
2023/02/06 03:30:30;;;;;;;1.70;1.60;;;5.80;99.90;;;;;;5069036;28;20177;-87
2023/02/06 03:33:03;;;;;;;4.23;0.40;;;5.90;99.90;;;;;;5052142;28;20174;-87
2023/02/06 03:35:33;;;;;;;7.73;0.80;;;5.80;99.90;;;;;;5051432;28;20213;-87
2023/02/06 03:37:59;;;;;;;1.93;1.63;;;5.70;99.90;;;;;;5051156;28;20212;-87
2023/02/06 03:40:27;;;;;;;1.70;0.80;;;5.70;99.90;;;;;;5051607;28;20241;-87
2023/02/06 03:42:56;;;;;;;2.20;1.00;;;5.80;99.90;;;;;;5051389;28;20213;-87
2023/02/06 03:45:35;;;;;;;2.93;2.07;;;5.80;99.90;;;;;;5051208;28;20180;-87
2023/02/06 03:48:06;;;;;;;5.70;1.23;;;5.90;99.90;;;;;;5069785;28;20212;-87
2023/02/06 03:50:33;;;;;;;14.87;1.77;;;5.80;99.90;;;;;;5069096;28;20670;-87
2023/02/06 03:53:02;;;;;;;1.60;0.70;;;5.90;99.90;;;;;;5034622;28;20233;-87
2023/02/06 03:55:29;;;;;;;2.20;1.60;;;6.00;99.90;;;;;;5069280;28;20308;-87
2023/02/06 03:58:08;;;;;;;1.63;1.30;;;6.00;99.90;;;;;;5018560;28;20288;-87
2023/02/06 04:00:38;;;;;;;10.43;1.23;;;6.00;99.90;;;;;;5051273;28;20229;-87
2023/02/06 04:03:04;;;;;;;4.17;2.57;;;6.00;99.90;;;;;;5069502;28;20261;-86
2023/02/06 04:05:30;;;;;;;0.50;0.50;;;6.00;99.90;;;;;;5051208;28;20262;-87
2023/02/06 04:07:55;;;;;;;2.37;1.13;;;6.10;99.90;;;;;;5034674;28;20802;-87
2023/02/06 04:10:22;;;;;;;0.93;0.87;;;5.80;99.90;;;;;;5050947;28;20221;-87
2023/02/06 04:12:48;;;;;;;8.30;3.03;;;5.60;99.90;;;;;;5051115;28;20225;-86
2023/02/06 04:15:14;;;;;;;2.57;0.67;;;5.70;99.90;;;;;;5051528;28;20181;-87
2023/02/06 04:17:39;;;;;;;7.13;1.67;;;5.70;99.90;;;;;;5035371;28;20178;-87
2023/02/06 04:20:05;;;;;;;6.20;3.63;;;5.60;99.90;;;;;;5068946;28;20686;-86
2023/02/06 04:22:31;;;;;;;2.13;0.67;;;5.60;99.90;;;;;;5051260;28;20223;-87
2023/02/06 04:24:57;;;;;;;0.90;0.87;;;5.60;99.90;;;;;;5018202;28;20214;-87
2023/02/06 04:27:23;;;;;;;9.73;2.57;;;5.70;99.90;;;;;;5034552;28;20342;-88
2023/02/06 04:29:49;;;;;;;4.77;0.83;;;5.70;99.90;;;;;;5034684;28;20184;-87
2023/02/06 04:32:15;;;;;;;1.57;1.47;;;5.70;99.90;;;;;;5018834;28;20221;-87
2023/02/06 04:34:40;;;;;;;1.90;1.67;;;5.70;99.90;;;;;;5038051;28;20255;-87
2023/02/06 04:37:06;;;;;;;7.13;2.57;;;5.70;99.90;;;;;;5038157;28;20217;-87
2023/02/06 04:39:33;;;;;;;1.70;0.60;;;5.60;99.90;;;;;;5037133;28;20186;-87
2023/02/06 04:41:58;;;;;;;5.33;2.77;;;5.60;99.90;;;;;;5054949;28;20197;-86
2023/02/06 04:44:24;;;;;;;14.07;1.43;;;5.60;99.90;;;;;;5053970;28;20220;-86
2023/02/06 04:46:50;;;;;;;14.33;1.07;;;5.50;99.90;;;;;;5071485;28;20388;-88
2023/02/06 04:49:16;;;;;;;1.20;1.13;;;5.60;99.90;;;;;;5053904;28;20205;-87
2023/02/06 04:51:42;;;;;;;16.77;1.93;;;5.70;99.90;;;;;;5054177;28;20274;-87
2023/02/06 04:54:12;;;;;;;0.83;0.83;;;5.70;99.90;;;;;;5072422;28;20225;-86
2023/02/06 04:56:37;;;;;;;4.20;1.13;;;5.70;99.90;;;;;;5071540;28;20213;-87
2023/02/06 04:59:03;;;;;;;3.33;1.07;;;5.70;99.90;;;;;;5037518;28;20239;-87
2023/02/06 05:01:29;;;;;;;2.63;0.60;;;5.60;99.90;;;;;;5020366;28;20705;-87
2023/02/06 05:03:55;;;;;;;1.80;1.07;;;5.60;99.90;;;;;;5054076;28;20239;-85
2023/02/06 05:06:21;;;;;;;6.33;2.13;;;5.60;99.90;;;;;;5020749;28;20181;-87
2023/02/06 05:08:46;;;;;;;2.53;2.43;;;5.50;99.90;;;;;;5037608;28;20745;-86
2023/02/06 05:11:12;;;;;;;2.20;1.30;;;5.70;99.90;;;;;;5037395;28;20221;-86
2023/02/06 05:13:38;;;;;;;2.80;1.40;;;5.60;99.90;;;;;;5020329;28;20308;-87
2023/02/06 05:16:05;;;;;;;0.50;0.50;;;5.60;99.90;;;;;;5020797;28;20209;-85
2023/02/06 05:18:31;;;;;;;7.63;0.80;;;5.60;99.90;;;;;;5053081;28;20831;-85
2023/02/06 05:20:57;;;;;;;0.57;0.57;;;5.70;99.90;;;;;;5036812;28;20201;-86
2023/02/06 05:23:22;;;;;;;0.87;0.67;;;5.80;99.90;;;;;;5070689;28;20224;-85
2023/02/06 05:25:48;;;;;;;0.20;0.20;;;5.80;99.90;;;;;;5052602;28;20221;-86
2023/02/06 05:28:14;;;;;;;1.40;1.40;;;5.70;99.90;;;;;;5053060;28;20213;-86
2023/02/06 05:30:39;;;;;;;2.70;1.50;;;5.70;99.90;;;;;;5019918;28;20270;-87
2023/02/06 05:33:05;;;;;;;9.40;0.60;;;5.80;99.90;;;;;;5020663;28;20185;-86
2023/02/06 05:35:31;;;;;;;1.57;1.47;;;5.80;99.90;;;;;;5053027;28;20221;-85
2023/02/06 05:37:57;;;;;;;0.77;0.70;;;5.80;99.90;;;;;;5052067;28;20213;-88
2023/02/06 05:40:23;;;;;;;6.97;1.10;;;5.80;99.90;;;;;;5069308;28;20229;-87
2023/02/06 05:42:49;;;;;;;11.73;3.13;;;5.80;99.90;;;;;;5052147;28;20216;-87
2023/02/06 05:45:15;;;;;;;0.30;0.30;;;5.80;99.90;;;;;;5041365;28;20708;-87
2023/02/06 05:47:41;;;;;;;5.83;1.37;;;5.80;99.90;;;;;;5054161;28;20286;-86
2023/02/06 05:50:07;;;;;;;0.63;0.63;;;5.80;99.90;;;;;;5041518;28;20687;-86
2023/02/06 05:52:33;;;;;;;2.27;1.40;;;5.80;99.90;;;;;;5035408;28;20241;-89
2023/02/06 05:54:58;;;;;;;9.93;0.63;;;5.80;99.90;;;;;;5051487;28;20318;-87
2023/02/06 05:57:24;;;;;;;6.23;1.10;;;5.80;99.90;;;;;;5051507;28;20178;-87
2023/02/06 05:59:50;;;;;;;0.97;0.97;;;5.80;99.90;;;;;;5070516;28;20181;-87
2023/02/06 06:02:15;;;;;;;6.20;4.43;;;5.70;99.90;;;;;;5052278;28;20233;-91
2023/02/06 06:04:41;;;;;;;10.57;7.90;;;5.70;99.90;;;;;;5036901;28;20240;-88
2023/02/06 06:07:08;;;;;;;7.37;4.13;;;5.70;99.90;;;;;;5038078;28;20209;-86
2023/02/06 06:09:33;;;;;;;13.07;5.33;;;5.60;99.90;;;;;;5040057;28;20279;-87
2023/02/06 06:11:59;;;;;;;9.43;7.10;;;5.60;99.90;;;;;;5021839;28;20363;-88
2023/02/06 06:14:25;;;;;;;4.83;3.50;;;5.60;99.90;;;;;;5036147;28;20213;-86
2023/02/06 06:16:51;;;;;;;6.90;2.30;;;5.50;99.90;;;;;;5019406;28;20217;-87
2023/02/06 06:19:17;;;;;;;2.27;1.40;;;5.50;99.90;;;;;;5019217;28;20582;-87
2023/02/06 06:21:43;;;;;;;0.83;0.83;;;5.60;99.90;;;;;;5035526;28;20743;-87
2023/02/06 06:24:09;;;;;;;4.63;2.23;;;5.60;99.90;;;;;;5036321;28;20181;-87
2023/02/06 06:26:35;;;;;;;3.93;1.03;;;5.60;99.90;;;;;;5035372;28;20251;-87
2023/02/06 06:29:00;;;;;;;1.77;1.50;;;5.60;99.90;;;;;;5035390;28;20212;-87
2023/02/06 06:31:26;;;;;;;3.93;2.13;;;5.70;99.90;;;;;;5051787;28;20224;-87
2023/02/06 06:33:53;;;;;;;2.83;2.63;;;5.70;99.90;;;;;;5051912;28;20215;-88
2023/02/06 06:36:19;;;;;;;0.73;0.67;;;5.60;99.90;;;;;;5035292;28;20573;-93
2023/02/06 06:38:44;;;;;;;1.07;0.97;;;5.60;99.90;;;;;;5053010;28;20173;-88
2023/02/06 06:41:10;;;;;;;3.70;1.00;;;5.50;99.90;;;;;;5035614;28;20472;-88
2023/02/06 06:43:36;;;;;;;2.00;1.27;;;5.50;99.90;;;;;;5035478;28;20286;-87
2023/02/06 06:46:03;;;;;;;4.00;1.90;;;5.50;99.90;;;;;;5051635;28;20755;-87
2023/02/06 06:48:30;;;;;;;1.07;0.97;;;5.50;99.90;;;;;;5036248;28;20177;-90
2023/02/06 06:50:56;;;;;;;3.63;1.13;;;5.50;99.90;;;;;;5036432;28;20189;-87
2023/02/06 06:53:22;;;;;;;2.83;1.80;;;5.50;99.90;;;;;;5035734;28;20304;-89
2023/02/06 06:55:47;;;;;;;2.37;1.40;;;5.50;99.90;;;;;;5034842;28;20217;-88
2023/02/06 06:58:14;;;;;;;1.23;1.13;;;5.40;99.90;;;;;;5034747;28;20300;-88
2023/02/06 07:00:39;;;;;;;3.70;2.07;;;5.30;99.90;;;;;;5052057;28;20221;-88
2023/02/06 07:03:06;;;;;;;1.77;1.67;;;5.30;99.90;;;;;;5019879;28;20758;-88
2023/02/06 07:05:33;;;;;;;12.30;1.17;;;5.30;99.90;;;;;;5051918;28;20279;-88
2023/02/06 07:07:59;;;;;;;2.83;1.40;;;5.30;99.90;;;;;;5069496;28;20213;-87
2023/02/06 07:10:25;;;;;;;6.43;2.40;;;5.30;99.90;;;;;;5032029;28;20535;-90
2023/02/06 07:12:55;;;;;;;0.93;0.93;;;5.30;99.90;;;;;;5031600;28;20217;-88
2023/02/06 07:15:22;;;;;;;8.20;0.87;;;5.30;99.90;;;;;;5032340;28;20178;-89
2023/02/06 07:17:47;;;;;;;1.60;0.60;;;5.20;99.90;;;;;;5031901;28;20185;-88
2023/02/06 07:20:13;;;;;;;2.07;1.97;;;5.10;99.90;;;;;;5031176;28;20222;-88
2023/02/06 07:22:39;;;;;;;0.50;0.50;;;5.00;99.90;;;;;;5015373;28;20221;-88
2023/02/06 07:25:05;;;;;;;5.47;1.43;;;5.00;99.90;;;;;;5048227;28;20230;-87
2023/02/06 07:27:31;;;;;;;0.73;0.67;;;5.00;99.90;;;;;;5049157;28;20178;-86
2023/02/06 07:29:58;;;;;;;5.23;1.33;;;5.10;99.90;;;;;;5048518;28;20181;-88
2023/02/06 07:32:24;;;;;;;2.73;0.90;;;5.10;99.90;;;;;;5031911;28;20296;-88
2023/02/06 07:34:50;;;;;;;0.93;0.90;;;5.20;99.90;;;;;;5015374;28;20213;-88
2023/02/06 07:37:16;;;;;;;0.30;0.30;;;5.30;99.90;;;;;;5031137;28;20267;-88
2023/02/06 07:39:42;;;;;;;4.77;1.13;;;5.40;99.90;;;;;;5015159;28;20376;-88
2023/02/06 07:42:07;;;;;;;0.30;0.30;;;5.40;99.90;;;;;;5032553;28;20647;-89
2023/02/06 07:44:33;;;;;;;3.97;0.40;;;5.40;99.90;;;;;;5015007;28;20234;-88
2023/02/06 07:46:59;;;;;;;0.33;0.33;;;5.40;99.90;;;;;;5048437;28;20304;-88
2023/02/06 07:49:25;;;;;;;1.03;0.40;;;5.50;99.90;;;;;;5015366;28;20667;-88
2023/02/06 07:51:51;;;;;;;3.63;0.93;;;5.60;99.90;;;;;;5048125;28;20301;-88
2023/02/06 07:54:16;;;;;;;6.40;0.67;;;5.70;99.90;;;;;;5031446;28;20189;-86
2023/02/06 07:56:42;;;;;;;1.60;1.50;;;5.80;99.90;;;;;;5048646;28;20181;-88
2023/02/06 07:59:08;;;;;;;1.23;0.90;;;5.90;99.90;;;;;;5032004;28;20697;-88
2023/02/06 08:01:34;;;;;;;0.43;0.40;;;5.90;99.90;;;;;;5049117;28;20233;-89
2023/02/06 08:04:01;;;;;;;0.60;0.60;;;6.00;99.90;;;;;;5048210;28;20663;-88
2023/02/06 08:06:27;;;;;;;0.33;0.33;;;5.90;99.90;;;;;;5048535;28;20175;-89
2023/02/06 08:08:56;;;;;;;7.00;0.83;;;6.00;99.90;;;;;;5052222;28;20221;-89
2023/02/06 08:11:24;;;;;;;1.63;1.53;;;6.10;99.90;;;;;;5052054;28;20710;-91
2023/02/06 08:13:50;;;;;;;4.70;1.00;;;6.10;99.90;;;;;;5036032;28;20224;-90
2023/02/06 08:16:19;;;;;;;0.97;0.97;;;6.20;99.90;;;;;;5019109;28;20308;-90
2023/02/06 08:18:45;;;;;;;4.63;2.70;;;6.30;99.90;;;;;;5035247;28;20655;-91
2023/02/06 08:21:18;;;;;;;7.57;0.80;;;6.40;99.90;;;;;;5052572;28;20210;-89
2023/02/06 08:23:44;;;;;;;2.10;0.73;;;6.50;99.90;;;;;;5052763;28;20202;-88
2023/02/06 08:26:16;;;;;;;1.27;1.27;;;6.60;99.90;;;;;;5052064;28;20239;-89
2023/02/06 08:28:43;;;;;;;0.97;0.97;;;6.70;99.90;;;;;;5052048;28;20221;-90
2023/02/06 08:31:11;;;;;;;1.07;1.07;;;6.80;99.90;;;;;;5035684;28;20264;-90
2023/02/06 08:33:37;;;;;;;1.40;1.30;;;6.80;99.90;;;;;;5051304;28;20218;-90
2023/02/06 08:36:04;;;;;;;0.67;0.67;;;6.90;99.90;;;;;;5036298;28;20174;-89
2023/02/06 08:38:30;;;;;;;2.37;0.60;;;7.00;99.90;;;;;;5052082;28;20423;-91
2023/02/06 08:40:56;;;;;;;5.50;2.17;;;7.10;99.90;;;;;;5016807;28;20741;-90
2023/02/06 08:43:22;;;;;;;7.47;1.03;;;7.10;99.90;;;;;;5051896;28;20250;-87
2023/02/06 08:45:52;;;;;;;5.37;1.13;;;7.30;99.90;;;;;;5051342;28;20671;-90
2023/02/06 08:48:18;;;;;;;3.80;1.90;;;7.50;99.90;;;;;;5035018;28;20174;-90
2023/02/06 08:50:44;;;;;;;7.23;0.93;;;7.60;99.90;;;;;;5051968;28;20632;-90
2023/02/06 08:53:10;;;;;;;0.57;0.43;;;7.70;99.90;;;;;;5017992;28;20410;-90
2023/02/06 08:55:36;;;;;;;2.60;1.37;;;7.60;99.90;;;;;;5051103;28;20342;-91
2023/02/06 08:58:03;;;;;;;9.50;3.70;;;7.70;99.90;;;;;;5017879;28;20583;-90
2023/02/06 09:00:29;;;;;;;9.00;1.63;;;7.80;99.90;;;;;;5034160;28;20332;-91
2023/02/06 09:02:55;;;;;;;6.30;1.93;;;8.10;99.90;;;;;;5051246;28;20620;-91
2023/02/06 09:05:21;;;;;;;6.47;2.23;;;8.40;99.90;;;;;;5017372;28;20272;-91
2023/02/06 09:07:48;;;;;;;2.80;2.67;;;8.70;99.90;;;;;;5051371;28;20411;-92
2023/02/06 09:10:14;;;;;;;1.50;1.17;;;8.80;99.90;;;;;;5034473;28;20241;-93
2023/02/06 09:12:40;;;;;;;3.23;1.97;;;8.80;99.90;;;;;;5051353;28;20226;-94
2023/02/06 09:15:06;;;;;;;2.30;1.40;;;8.80;99.90;;;;;;5034597;28;20178;-92
2023/02/06 09:17:32;;;;;;;0.60;0.60;;;8.60;99.90;;;;;;5050345;28;20218;-92
2023/02/06 09:19:59;;;;;;;4.53;1.03;;;8.60;99.90;;;;;;5049189;28;20683;-91
2023/02/06 09:22:26;;;;;;;0.97;0.80;;;8.40;99.90;;;;;;5034526;28;20225;-91
2023/02/06 09:24:51;;;;;;;4.50;1.70;;;8.50;99.90;;;;;;5050456;28;20246;-93
2023/02/06 09:27:18;;;;;;;12.97;1.30;;;8.70;99.90;;;;;;5051569;28;20169;-91
2023/02/06 09:29:43;;;;;;;2.63;1.37;;;8.70;99.90;;;;;;5050782;28;20650;-91
2023/02/06 09:32:09;;;;;;;3.17;0.93;;;8.70;99.90;;;;;;5050324;28;20226;-93
2023/02/06 09:34:35;;;;;;;11.13;1.47;;;8.80;99.90;;;;;;5050234;28;20237;-92
2023/02/06 09:37:02;;;;;;;4.57;3.30;;;8.80;99.90;;;;;;5033070;28;20213;-91
2023/02/06 09:39:29;;;;;;;9.67;1.07;;;8.70;99.90;;;;;;5049887;28;20174;-93
2023/02/06 09:42:03;;;;;;;3.23;1.03;;;8.90;99.90;;;;;;5050587;28;20213;-90
2023/02/06 09:44:39;;;;;;;2.70;1.90;;;8.90;99.90;;;;;;5050015;28;20749;-93
2023/02/06 09:47:24;;;;;;;2.57;1.40;;;8.90;99.90;;;;;;5049843;28;20217;-90
2023/02/06 09:50:27;;;;;;;9.10;3.47;;;9.00;99.90;;;;;;5050915;28;20325;-91
2023/02/06 09:53:16;;;;;;;3.23;0.63;;;9.10;99.90;;;;;;5018786;28;20221;-91
2023/02/06 09:55:50;;;;;;;0.70;0.70;;;9.20;99.90;;;;;;5019317;28;20233;-90
2023/02/06 09:58:25;;;;;;;5.10;1.20;;;9.20;99.90;;;;;;5050186;28;20216;-92
2023/02/06 10:01:01;;;;;;;4.67;1.27;;;9.00;99.90;;;;;;5050066;28;20300;-91
2023/02/06 10:03:47;;;;;;;1.73;1.63;;;8.90;99.90;;;;;;5050414;28;20170;-93
2023/02/06 10:06:20;;;;;;;3.50;1.30;;;8.80;99.90;;;;;;5050864;28;20500;-90
2023/02/06 10:09:04;;;;;;;1.97;1.80;;;8.70;99.90;;;;;;5053343;28;20229;-92
2023/02/06 10:11:53;;;;;;;2.43;0.80;;;8.50;99.90;;;;;;5070902;28;20293;-93
2023/02/06 10:14:39;;;;;;;8.03;1.47;;;8.50;99.90;;;;;;5053106;28;20217;-91
2023/02/06 10:17:18;;;;;;;3.40;1.70;;;8.60;99.90;;;;;;5053024;28;20239;-92
2023/02/06 10:20:00;;;;;;;3.27;0.83;;;8.60;99.90;;;;;;5053478;28;20220;-90
2023/02/06 10:22:58;;;;;;;3.27;1.00;;;8.70;99.90;;;;;;5052206;28;20239;-94
2023/02/06 10:25:34;;;;;;;4.37;0.87;;;8.80;99.90;;;;;;5045614;28;20213;-94
2023/02/06 10:28:30;;;;;;;4.13;1.83;;;8.70;99.90;;;;;;5052987;28;20690;-92
2023/02/06 10:31:15;;;;;;;1.50;1.30;;;8.70;99.90;;;;;;5019424;28;20274;-91
2023/02/06 10:34:14;;;;;;;7.60;0.83;;;8.60;99.90;;;;;;5053756;28;20224;-94
2023/02/06 10:37:18;;;;;;;4.17;1.80;;;8.60;99.90;;;;;;5053278;28;20233;-93
2023/02/06 10:40:06;;;;;;;0.70;0.70;;;8.50;99.90;;;;;;5053037;28;20229;-90
2023/02/06 10:43:10;;;;;;;4.37;0.60;;;8.40;99.90;;;;;;5043188;28;20225;-94
2023/02/06 10:45:46;;;;;;;0.50;0.33;;;8.40;99.90;;;;;;5054891;28;20246;-87
2023/02/06 10:48:23;;;;;;;1.60;1.53;;;8.20;99.90;;;;;;5070714;28;20272;-88
2023/02/06 10:50:59;;;;;;;6.03;1.80;;;8.10;99.90;;;;;;5052959;28;20331;-88
2023/02/06 10:53:35;;;;;;;6.70;1.43;;;8.20;99.90;;;;;;5070539;28;20212;-90
2023/02/06 10:56:05;;;;;;;1.33;1.23;;;8.10;99.90;;;;;;5070069;28;20246;-91
2023/02/06 10:58:45;;;;;;;14.97;2.00;;;8.00;99.90;;;;;;5052820;28;20208;-90
2023/02/06 11:01:13;;;;;;;0.50;0.50;;;8.10;99.90;;;;;;5052264;28;20232;-92
2023/02/06 11:03:49;;;;;;;0.20;0.20;;;8.10;99.90;;;;;;5069921;28;20205;-89
2023/02/06 11:06:19;;;;;;;4.60;1.10;;;8.00;99.90;;;;;;5052737;28;20168;-90
2023/02/06 11:08:46;;;;;;;4.10;0.73;;;8.10;99.90;;;;;;5052931;28;20289;-91
2023/02/06 11:11:24;;;;;;;3.97;1.73;;;8.20;99.90;;;;;;5069706;28;20673;-92
2023/02/06 11:13:59;;;;;;;0.20;0.20;;;8.10;99.90;;;;;;5052473;28;20235;-93
2023/02/06 11:16:29;;;;;;;6.90;1.17;;;8.30;99.90;;;;;;5052388;28;20424;-90
2023/02/06 11:18:59;;;;;;;0.20;0.20;;;8.20;99.90;;;;;;5036161;28;20298;-90
2023/02/06 11:21:40;;;;;;;3.00;2.10;;;8.10;99.90;;;;;;5036423;28;20869;-94
2023/02/06 11:24:11;;;;;;;0.57;0.53;;;8.20;99.90;;;;;;5053299;28;20196;-91
2023/02/06 11:26:42;;;;;;;3.60;0.57;;;8.30;99.90;;;;;;5052565;28;20633;-90
2023/02/06 11:29:15;;;;;;;1.10;0.30;;;8.10;99.90;;;;;;5052164;28;20227;-90
2023/02/06 11:31:57;;;;;;;0.50;0.50;;;8.30;99.90;;;;;;5052371;28;20300;-89
2023/02/06 11:34:32;;;;;;;0.40;0.40;;;8.20;99.90;;;;;;5052186;28;20215;-91
2023/02/06 11:37:00;;;;;;;9.67;1.23;;;8.20;99.90;;;;;;5051952;28;20204;-92
2023/02/06 11:39:38;;;;;;;2.17;0.60;;;8.40;99.90;;;;;;5052215;28;20169;-90
2023/02/06 11:42:03;;;;;;;0.93;0.93;;;8.60;99.90;;;;;;5052619;28;20577;-89
2023/02/06 11:44:39;;;;;;;0.20;0.20;;;9.30;99.90;;;;;;5056076;28;20237;-91
2023/02/06 11:47:27;;;;;;;0.10;0.10;;;9.80;99.90;;;;;;5055994;28;20208;-89
2023/02/06 11:49:53;;;;;;;1.90;1.23;;;9.80;99.90;;;;;;5055915;28;20236;-90
2023/02/06 11:52:32;;;;;;;0.30;0.30;;;10.00;99.90;;;;;;5023023;28;20213;-90
2023/02/06 11:55:01;;;;;;;0.20;0.20;;;10.10;99.90;;;;;;5056227;28;20205;-89
2023/02/06 11:57:32;;;;;;;5.03;0.40;;;9.70;99.90;;;;;;5023919;28;20181;-89
2023/02/06 12:00:02;;;;;;;1.13;0.70;;;9.40;99.90;;;;;;5056382;28;20165;-89
2023/02/06 12:02:35;;;;;;;0.97;0.97;;;9.20;99.90;;;;;;5073324;28;20229;-89
2023/02/06 12:05:13;;;;;;;1.40;1.03;;;9.10;99.90;;;;;;5055579;28;20236;-89
2023/02/06 12:07:45;;;;;;;0.10;0.10;;;8.90;99.90;;;;;;5055955;28;20209;-91
2023/02/06 12:10:17;;;;;;;4.00;0.73;;;8.90;99.90;;;;;;5073438;28;20228;-90
2023/02/06 12:12:56;;;;;;;3.50;2.17;;;8.80;99.90;;;;;;5055862;28;20367;-89
2023/02/06 12:15:44;;;;;;;3.70;1.17;;;8.90;99.90;;;;;;5073097;28;20170;-90
2023/02/06 12:18:41;;;;;;;0.30;0.30;;;8.70;99.90;;;;;;5056160;28;20177;-94
2023/02/06 12:21:15;;;;;;;0.60;0.60;;;8.60;99.90;;;;;;5062898;28;20232;-89
2023/02/06 12:23:56;;;;;;;3.83;1.40;;;8.70;99.90;;;;;;5056114;28;20223;-88
2023/02/06 12:26:27;;;;;;;0.63;0.63;;;8.70;99.90;;;;;;5055686;28;20217;-89
2023/02/06 12:29:08;;;;;;;0.10;0.10;;;8.60;99.90;;;;;;5055630;28;20432;-90
2023/02/06 12:31:38;;;;;;;10.93;0.83;;;8.50;99.90;;;;;;5055572;28;20270;-91
2023/02/06 12:34:21;;;;;;;4.10;0.70;;;8.70;99.90;;;;;;5055089;28;20284;-89
2023/02/06 12:37:13;;;;;;;0.20;0.20;;;8.60;99.90;;;;;;5055211;28;20201;-88
2023/02/06 12:39:40;;;;;;;0.60;0.60;;;8.70;99.90;;;;;;5072377;28;20205;-88
2023/02/06 12:42:18;;;;;;;2.00;1.00;;;8.70;99.90;;;;;;5055477;28;20209;-88
2023/02/06 12:44:56;;;;;;;0.20;0.20;;;8.70;99.90;;;;;;5055316;28;20223;-88
2023/02/06 12:47:41;;;;;;;0.83;0.80;;;8.70;99.90;;;;;;5054985;28;20253;-89
2023/02/06 12:50:09;;;;;;;0.83;0.53;;;8.60;99.90;;;;;;5054707;28;20220;-88
2023/02/06 12:52:57;;;;;;;0.70;0.70;;;8.80;99.90;;;;;;5072038;28;20270;-88
2023/02/06 12:55:39;;;;;;;1.90;1.80;;;9.20;99.90;;;;;;5053851;28;20205;-89
2023/02/06 12:58:22;;;;;;;0.93;0.93;;;9.20;99.90;;;;;;5053697;28;20205;-88
2023/02/06 13:01:18;;;;;;;0.93;0.37;;;9.60;99.90;;;;;;5053495;28;20362;-88
2023/02/06 13:03:50;;;;;;;1.07;0.90;;;9.80;99.90;;;;;;5054575;28;20212;-88
2023/02/06 13:06:20;;;;;;;0.67;0.63;;;9.60;99.90;;;;;;5054400;28;20261;-84
2023/02/06 13:09:00;;;;;;;6.70;2.00;;;9.90;99.90;;;;;;5072464;28;20233;-87
2023/02/06 13:11:39;;;;;;;0.80;0.80;;;10.00;99.90;;;;;;5053836;28;20240;-88
2023/02/06 13:14:13;;;;;;;2.10;0.97;;;9.90;99.90;;;;;;5036898;28;20220;-88